Epic St.ivan — 9HA4347 — position and weather

sailwx.info

Track history (hours):
 
Tides and Currents Weather Stations Pressure Air Temp Water Temp Dewpoint Dewpoint Depression Visibility Wind Speed Wind Dir Waves Ship Positions

Epic St.ivan

Last reported at 2017-Nov-19 08:17 UTC. Time now 2017-Nov-23 03:55 UTC.
Position N 35°58' W 005°36'.

Length 99 m; draft 5.6 m.

Type: Tanker. MMSI: 249714000.

Date/timePositionNaut miles runAvg speedWind from/ knotsBaromVisibWave heightAir tempDewpointWater temp
2017-Nov-19 08:17N 35°58' W 005°36'311.1
2017-Nov-19 08:00N 35°59' W 005°33'510.8
2017-Nov-19 07:30N 36°01' W 005°26'510.2
2017-Nov-19 07:00N 36°05' W 005°24'5 9.4
2017-Nov-19 06:30N 36°10' W 005°24'3 0.1
2017-Nov-17 20:17N 36°07' W 005°23'3 9.3
2017-Nov-17 20:00N 36°04' W 005°22'1 2.1
2017-Nov-17 19:21N 36°03' W 005°21'1 1.5
2017-Nov-17 19:00N 36°03' W 005°22'1 0.9
2017-Nov-17 17:26N 36°03' W 005°23'7 8.3
2017-Nov-17 16:35N 35°58' W 005°30'  
2017-Nov-14 04:41N 35°58' W 005°37'2 9.6
2017-Nov-14 04:30N 35°58' W 005°35'4 9.1
2017-Nov-14 04:00N 35°60' W 005°29'4 8.9
2017-Nov-14 03:30N 36°02' W 005°24'611.6
2017-Nov-14 03:00N 36°07' W 005°24'3 0.1
2017-Nov-12 20:04N 36°10' W 005°26'0 0.0
2017-Nov-12 19:55N 36°10' W 005°26'0 0.0
2017-Nov-12 19:16N 36°10' W 005°26'0 0.0
2017-Nov-12 18:52N 36°10' W 005°26'0 0.0
2017-Nov-12 16:10N 36°10' W 005°26'0 0.0
2017-Nov-12 15:52N 36°10' W 005°26'0 0.0
2017-Nov-12 15:28N 36°10' W 005°26'0 0.0
2017-Nov-12 14:55N 36°10' W 005°26'0 0.0
2017-Nov-12 14:07N 36°10' W 005°26'0 0.1
2017-Nov-12 13:58N 36°10' W 005°26'0 0.0
2017-Nov-12 12:37N 36°10' W 005°26'0 0.0
2017-Nov-12 04:19N 36°10' W 005°26'0 0.1
2017-Nov-12 03:13N 36°10' W 005°26'3 4.9
2017-Nov-12 02:35N 36°07' W 005°24'1 8.6
2017-Nov-12 02:30N 36°06' W 005°24'3 6.2
2017-Nov-12 02:00N 36°03' W 005°23'3 0.1
2017-Nov-10 10:53N 36°01' W 005°25'  
Track history (hours):
 
Tides and Currents Weather Stations Pressure Air Temp Water Temp Dewpoint Dewpoint Depression Visibility Wind Speed Wind Dir Waves Ship Positions

Epic St.ivan

Last reported at 2017-Nov-19 08:17 UTC. Time now 2017-Nov-23 03:55 UTC.
Position N 35°58' W 005°36'.

Length 99 m; draft 5.6 m.

Type: Tanker. MMSI: 249714000.

Date/timePositionNaut miles runAvg speedWind from/ knotsBaromVisibWave heightAir tempDewpointWater temp
2017-Nov-19 08:17N 35°58' W 005°36'311.1
2017-Nov-19 08:00N 35°59' W 005°33'510.8
2017-Nov-19 07:30N 36°01' W 005°26'510.2
2017-Nov-19 07:00N 36°05' W 005°24'5 9.4
2017-Nov-19 06:30N 36°10' W 005°24'3 0.1
2017-Nov-17 20:17N 36°07' W 005°23'3 9.3
2017-Nov-17 20:00N 36°04' W 005°22'1 2.1
2017-Nov-17 19:21N 36°03' W 005°21'1 1.5
2017-Nov-17 19:00N 36°03' W 005°22'1 0.9
2017-Nov-17 17:26N 36°03' W 005°23'7 8.3
2017-Nov-17 16:35N 35°58' W 005°30'  
2017-Nov-14 04:41N 35°58' W 005°37'2 9.6
2017-Nov-14 04:30N 35°58' W 005°35'4 9.1
2017-Nov-14 04:00N 35°60' W 005°29'4 8.9
2017-Nov-14 03:30N 36°02' W 005°24'611.6
2017-Nov-14 03:00N 36°07' W 005°24'3 0.1
2017-Nov-12 20:04N 36°10' W 005°26'0 0.0
2017-Nov-12 19:55N 36°10' W 005°26'0 0.0
2017-Nov-12 19:16N 36°10' W 005°26'0 0.0
2017-Nov-12 18:52N 36°10' W 005°26'0 0.0
2017-Nov-12 16:10N 36°10' W 005°26'0 0.0
2017-Nov-12 15:52N 36°10' W 005°26'0 0.0
2017-Nov-12 15:28N 36°10' W 005°26'0 0.0
2017-Nov-12 14:55N 36°10' W 005°26'0 0.0
2017-Nov-12 14:07N 36°10' W 005°26'0 0.1
2017-Nov-12 13:58N 36°10' W 005°26'0 0.0
2017-Nov-12 12:37N 36°10' W 005°26'0 0.0
2017-Nov-12 04:19N 36°10' W 005°26'0 0.1
2017-Nov-12 03:13N 36°10' W 005°26'3 4.9
2017-Nov-12 02:35N 36°07' W 005°24'1 8.6
2017-Nov-12 02:30N 36°06' W 005°24'3 6.2
2017-Nov-12 02:00N 36°03' W 005°23'3 0.1
2017-Nov-10 10:53N 36°01' W 005°25'  

Dump ship's entire track history